sensor_id;sensor_type;location;lat;lon;timestamp;P1;durP1;ratioP1;P2;durP2;ratioP2
43857;SDS011;29507;51.284;5.758;2023-06-10T00:00:19;8.00;;;5.03;;
43857;SDS011;29507;51.284;5.758;2023-06-10T00:02:45;8.98;;;5.07;;
43857;SDS011;29507;51.284;5.758;2023-06-10T00:05:11;12.15;;;4.82;;
43857;SDS011;29507;51.284;5.758;2023-06-10T00:07:36;8.10;;;4.90;;
43857;SDS011;29507;51.284;5.758;2023-06-10T00:10:06;7.88;;;4.95;;
43857;SDS011;29507;51.284;5.758;2023-06-10T00:12:32;7.40;;;4.78;;
43857;SDS011;29507;51.284;5.758;2023-06-10T00:15:02;7.75;;;5.00;;
43857;SDS011;29507;51.284;5.758;2023-06-10T00:17:29;7.65;;;5.55;;
43857;SDS011;29507;51.284;5.758;2023-06-10T00:19:55;10.00;;;4.82;;
43857;SDS011;29507;51.284;5.758;2023-06-10T00:22:21;8.30;;;4.70;;
43857;SDS011;29507;51.284;5.758;2023-06-10T00:24:47;8.35;;;4.63;;
43857;SDS011;29507;51.284;5.758;2023-06-10T00:27:13;7.68;;;4.82;;
43857;SDS011;29507;51.284;5.758;2023-06-10T00:29:39;8.27;;;4.93;;
43857;SDS011;29507;51.284;5.758;2023-06-10T00:32:04;10.90;;;5.38;;
43857;SDS011;29507;51.284;5.758;2023-06-10T00:34:30;7.45;;;4.75;;
43857;SDS011;29507;51.284;5.758;2023-06-10T00:36:57;7.43;;;4.93;;
43857;SDS011;29507;51.284;5.758;2023-06-10T00:39:23;9.63;;;5.43;;
43857;SDS011;29507;51.284;5.758;2023-06-10T00:41:49;10.20;;;5.20;;
43857;SDS011;29507;51.284;5.758;2023-06-10T00:44:15;9.43;;;4.85;;
43857;SDS011;29507;51.284;5.758;2023-06-10T00:46:41;7.75;;;4.85;;
43857;SDS011;29507;51.284;5.758;2023-06-10T00:49:07;7.32;;;4.85;;
43857;SDS011;29507;51.284;5.758;2023-06-10T00:51:33;7.65;;;4.80;;
43857;SDS011;29507;51.284;5.758;2023-06-10T00:54:00;7.88;;;5.03;;
43857;SDS011;29507;51.284;5.758;2023-06-10T00:56:25;13.95;;;4.80;;
43857;SDS011;29507;51.284;5.758;2023-06-10T00:58:53;8.50;;;4.50;;
43857;SDS011;29507;51.284;5.758;2023-06-10T01:01:19;8.43;;;4.68;;
43857;SDS011;29507;51.284;5.758;2023-06-10T01:03:44;10.68;;;4.70;;
43857;SDS011;29507;51.284;5.758;2023-06-10T01:06:30;8.50;;;4.55;;
43857;SDS011;29507;51.284;5.758;2023-06-10T01:12:09;7.17;;;4.83;;
43857;SDS011;29507;51.284;5.758;2023-06-10T01:14:41;8.52;;;5.18;;
43857;SDS011;29507;51.284;5.758;2023-06-10T01:17:10;8.73;;;5.60;;
43857;SDS011;29507;51.284;5.758;2023-06-10T01:19:36;9.68;;;5.43;;
43857;SDS011;29507;51.284;5.758;2023-06-10T01:22:02;8.98;;;5.43;;
43857;SDS011;29507;51.284;5.758;2023-06-10T01:24:28;8.82;;;6.07;;
43857;SDS011;29507;51.284;5.758;2023-06-10T01:29:33;9.45;;;5.18;;
43857;SDS011;29507;51.284;5.758;2023-06-10T01:32:24;9.15;;;5.57;;
43857;SDS011;29507;51.284;5.758;2023-06-10T01:34:55;9.20;;;5.38;;
43857;SDS011;29507;51.284;5.758;2023-06-10T01:37:22;10.32;;;5.60;;
43857;SDS011;29507;51.284;5.758;2023-06-10T01:39:51;8.05;;;5.00;;
43857;SDS011;29507;51.284;5.758;2023-06-10T01:42:19;11.80;;;5.30;;
43857;SDS011;29507;51.284;5.758;2023-06-10T01:44:45;7.50;;;5.40;;
43857;SDS011;29507;51.284;5.758;2023-06-10T01:47:11;7.43;;;5.10;;
43857;SDS011;29507;51.284;5.758;2023-06-10T01:49:37;9.32;;;5.45;;
43857;SDS011;29507;51.284;5.758;2023-06-10T01:52:02;11.38;;;5.80;;
43857;SDS011;29507;51.284;5.758;2023-06-10T01:54:28;9.18;;;5.40;;
43857;SDS011;29507;51.284;5.758;2023-06-10T01:56:54;11.20;;;5.65;;
43857;SDS011;29507;51.284;5.758;2023-06-10T01:59:19;8.15;;;5.32;;
43857;SDS011;29507;51.284;5.758;2023-06-10T02:01:45;8.00;;;5.53;;
43857;SDS011;29507;51.284;5.758;2023-06-10T02:04:10;9.80;;;5.57;;
43857;SDS011;29507;51.284;5.758;2023-06-10T02:06:36;7.90;;;5.13;;
43857;SDS011;29507;51.284;5.758;2023-06-10T02:09:02;7.70;;;5.57;;
43857;SDS011;29507;51.284;5.758;2023-06-10T02:11:28;8.85;;;5.43;;
43857;SDS011;29507;51.284;5.758;2023-06-10T02:13:54;11.07;;;5.93;;
43857;SDS011;29507;51.284;5.758;2023-06-10T02:16:20;8.70;;;6.82;;
43857;SDS011;29507;51.284;5.758;2023-06-10T02:18:46;9.43;;;6.13;;
43857;SDS011;29507;51.284;5.758;2023-06-10T02:21:12;9.85;;;5.97;;
43857;SDS011;29507;51.284;5.758;2023-06-10T02:23:37;9.85;;;5.88;;
43857;SDS011;29507;51.284;5.758;2023-06-10T02:26:03;9.48;;;6.18;;
43857;SDS011;29507;51.284;5.758;2023-06-10T02:28:29;8.90;;;5.88;;
43857;SDS011;29507;51.284;5.758;2023-06-10T02:30:55;7.60;;;4.97;;
43857;SDS011;29507;51.284;5.758;2023-06-10T02:33:22;9.30;;;6.05;;
43857;SDS011;29507;51.284;5.758;2023-06-10T02:35:49;7.88;;;5.07;;
43857;SDS011;29507;51.284;5.758;2023-06-10T02:38:14;8.98;;;6.63;;
43857;SDS011;29507;51.284;5.758;2023-06-10T02:40:40;11.30;;;6.30;;
43857;SDS011;29507;51.284;5.758;2023-06-10T02:43:06;9.45;;;5.63;;
43857;SDS011;29507;51.284;5.758;2023-06-10T02:45:31;11.02;;;6.05;;
43857;SDS011;29507;51.284;5.758;2023-06-10T02:47:57;11.20;;;5.95;;
43857;SDS011;29507;51.284;5.758;2023-06-10T02:50:22;6.70;;;4.88;;
43857;SDS011;29507;51.284;5.758;2023-06-10T02:52:48;8.38;;;5.55;;
43857;SDS011;29507;51.284;5.758;2023-06-10T02:55:15;8.68;;;5.90;;
43857;SDS011;29507;51.284;5.758;2023-06-10T02:57:40;8.35;;;6.00;;
43857;SDS011;29507;51.284;5.758;2023-06-10T03:00:06;13.30;;;6.20;;
43857;SDS011;29507;51.284;5.758;2023-06-10T03:02:36;11.45;;;6.60;;
43857;SDS011;29507;51.284;5.758;2023-06-10T03:05:04;12.05;;;7.07;;
43857;SDS011;29507;51.284;5.758;2023-06-10T03:07:30;9.23;;;6.13;;
43857;SDS011;29507;51.284;5.758;2023-06-10T03:09:57;8.93;;;6.00;;
43857;SDS011;29507;51.284;5.758;2023-06-10T03:12:22;10.52;;;6.60;;
43857;SDS011;29507;51.284;5.758;2023-06-10T03:14:48;10.40;;;6.20;;
43857;SDS011;29507;51.284;5.758;2023-06-10T03:17:13;10.00;;;6.65;;
43857;SDS011;29507;51.284;5.758;2023-06-10T03:19:39;10.25;;;7.30;;
43857;SDS011;29507;51.284;5.758;2023-06-10T03:22:23;10.15;;;6.82;;
43857;SDS011;29507;51.284;5.758;2023-06-10T03:24:48;10.52;;;6.72;;
43857;SDS011;29507;51.284;5.758;2023-06-10T03:27:16;11.02;;;7.22;;
43857;SDS011;29507;51.284;5.758;2023-06-10T03:29:41;11.23;;;7.78;;
43857;SDS011;29507;51.284;5.758;2023-06-10T03:32:07;10.90;;;8.30;;
43857;SDS011;29507;51.284;5.758;2023-06-10T03:34:33;13.88;;;8.02;;
43857;SDS011;29507;51.284;5.758;2023-06-10T03:36:59;12.23;;;7.80;;
43857;SDS011;29507;51.284;5.758;2023-06-10T03:39:25;15.07;;;8.13;;
43857;SDS011;29507;51.284;5.758;2023-06-10T03:44:19;17.70;;;8.52;;
43857;SDS011;29507;51.284;5.758;2023-06-10T03:46:45;13.07;;;7.68;;
43857;SDS011;29507;51.284;5.758;2023-06-10T03:49:10;11.65;;;7.97;;
43857;SDS011;29507;51.284;5.758;2023-06-10T03:51:36;11.00;;;8.60;;
43857;SDS011;29507;51.284;5.758;2023-06-10T03:54:02;13.45;;;8.43;;
43857;SDS011;29507;51.284;5.758;2023-06-10T03:56:28;13.20;;;8.05;;
43857;SDS011;29507;51.284;5.758;2023-06-10T03:58:54;11.75;;;7.75;;
43857;SDS011;29507;51.284;5.758;2023-06-10T04:01:20;11.68;;;8.15;;
43857;SDS011;29507;51.284;5.758;2023-06-10T04:06:16;11.32;;;7.88;;
43857;SDS011;29507;51.284;5.758;2023-06-10T04:08:42;13.90;;;7.72;;
43857;SDS011;29507;51.284;5.758;2023-06-10T04:11:08;12.77;;;7.75;;
43857;SDS011;29507;51.284;5.758;2023-06-10T04:13:34;12.02;;;8.30;;
43857;SDS011;29507;51.284;5.758;2023-06-10T04:15:59;12.43;;;7.85;;
43857;SDS011;29507;51.284;5.758;2023-06-10T04:18:25;11.57;;;7.05;;
43857;SDS011;29507;51.284;5.758;2023-06-10T04:20:51;10.43;;;7.72;;
43857;SDS011;29507;51.284;5.758;2023-06-10T04:23:16;12.52;;;7.57;;
43857;SDS011;29507;51.284;5.758;2023-06-10T04:25:43;10.18;;;7.65;;
43857;SDS011;29507;51.284;5.758;2023-06-10T04:28:08;12.85;;;8.57;;
43857;SDS011;29507;51.284;5.758;2023-06-10T04:30:34;9.82;;;6.72;;
43857;SDS011;29507;51.284;5.758;2023-06-10T04:33:00;10.10;;;7.82;;
43857;SDS011;29507;51.284;5.758;2023-06-10T04:35:25;11.63;;;7.05;;
43857;SDS011;29507;51.284;5.758;2023-06-10T04:37:54;12.57;;;8.35;;
43857;SDS011;29507;51.284;5.758;2023-06-10T04:40:20;14.05;;;9.00;;
43857;SDS011;29507;51.284;5.758;2023-06-10T04:42:45;12.45;;;9.05;;
43857;SDS011;29507;51.284;5.758;2023-06-10T04:45:11;17.65;;;8.93;;
43857;SDS011;29507;51.284;5.758;2023-06-10T04:47:36;12.23;;;7.97;;
43857;SDS011;29507;51.284;5.758;2023-06-10T04:50:02;14.20;;;8.30;;
43857;SDS011;29507;51.284;5.758;2023-06-10T04:52:29;16.50;;;8.60;;
43857;SDS011;29507;51.284;5.758;2023-06-10T04:54:54;12.50;;;7.70;;
43857;SDS011;29507;51.284;5.758;2023-06-10T04:57:21;11.27;;;7.72;;
43857;SDS011;29507;51.284;5.758;2023-06-10T04:59:47;14.45;;;8.05;;
43857;SDS011;29507;51.284;5.758;2023-06-10T05:02:12;12.77;;;8.45;;
43857;SDS011;29507;51.284;5.758;2023-06-10T05:04:38;13.75;;;7.82;;
43857;SDS011;29507;51.284;5.758;2023-06-10T05:07:04;13.68;;;8.48;;
43857;SDS011;29507;51.284;5.758;2023-06-10T05:09:30;12.82;;;8.80;;
43857;SDS011;29507;51.284;5.758;2023-06-10T05:11:56;13.27;;;8.85;;
43857;SDS011;29507;51.284;5.758;2023-06-10T05:14:22;13.90;;;8.82;;
43857;SDS011;29507;51.284;5.758;2023-06-10T05:16:47;18.27;;;9.45;;
43857;SDS011;29507;51.284;5.758;2023-06-10T05:19:13;14.02;;;8.50;;
43857;SDS011;29507;51.284;5.758;2023-06-10T05:21:41;17.05;;;9.70;;
43857;SDS011;29507;51.284;5.758;2023-06-10T05:24:07;13.80;;;9.85;;
43857;SDS011;29507;51.284;5.758;2023-06-10T05:26:32;13.02;;;8.55;;
43857;SDS011;29507;51.284;5.758;2023-06-10T05:31:28;12.80;;;8.57;;
43857;SDS011;29507;51.284;5.758;2023-06-10T05:33:53;14.73;;;8.63;;
43857;SDS011;29507;51.284;5.758;2023-06-10T05:36:19;12.93;;;8.32;;
43857;SDS011;29507;51.284;5.758;2023-06-10T05:38:44;13.35;;;9.45;;
43857;SDS011;29507;51.284;5.758;2023-06-10T05:41:10;12.27;;;8.10;;
43857;SDS011;29507;51.284;5.758;2023-06-10T05:43:35;14.35;;;8.30;;
43857;SDS011;29507;51.284;5.758;2023-06-10T05:46:01;11.35;;;8.07;;
43857;SDS011;29507;51.284;5.758;2023-06-10T05:48:27;12.82;;;9.50;;
43857;SDS011;29507;51.284;5.758;2023-06-10T05:50:52;10.52;;;7.93;;
43857;SDS011;29507;51.284;5.758;2023-06-10T05:53:18;13.07;;;8.52;;
43857;SDS011;29507;51.284;5.758;2023-06-10T05:55:44;11.88;;;9.25;;
43857;SDS011;29507;51.284;5.758;2023-06-10T05:58:10;13.80;;;9.57;;
43857;SDS011;29507;51.284;5.758;2023-06-10T06:00:38;10.57;;;8.40;;
43857;SDS011;29507;51.284;5.758;2023-06-10T06:03:08;11.65;;;9.27;;
43857;SDS011;29507;51.284;5.758;2023-06-10T06:05:34;11.23;;;7.43;;
43857;SDS011;29507;51.284;5.758;2023-06-10T06:08:02;13.75;;;9.27;;
43857;SDS011;29507;51.284;5.758;2023-06-10T06:10:28;13.13;;;9.63;;
43857;SDS011;29507;51.284;5.758;2023-06-10T06:12:54;9.48;;;6.55;;
43857;SDS011;29507;51.284;5.758;2023-06-10T06:15:20;10.30;;;8.05;;
43857;SDS011;29507;51.284;5.758;2023-06-10T06:17:45;13.55;;;7.40;;
43857;SDS011;29507;51.284;5.758;2023-06-10T06:20:11;12.20;;;8.15;;
43857;SDS011;29507;51.284;5.758;2023-06-10T06:22:37;11.10;;;8.15;;
43857;SDS011;29507;51.284;5.758;2023-06-10T06:25:03;11.27;;;7.97;;
43857;SDS011;29507;51.284;5.758;2023-06-10T06:27:29;9.85;;;7.78;;
43857;SDS011;29507;51.284;5.758;2023-06-10T06:29:55;13.57;;;7.75;;
43857;SDS011;29507;51.284;5.758;2023-06-10T06:32:20;10.27;;;8.05;;
43857;SDS011;29507;51.284;5.758;2023-06-10T06:34:47;11.05;;;7.95;;
43857;SDS011;29507;51.284;5.758;2023-06-10T06:37:18;12.55;;;8.80;;
43857;SDS011;29507;51.284;5.758;2023-06-10T06:39:48;9.95;;;7.47;;
43857;SDS011;29507;51.284;5.758;2023-06-10T06:44:43;8.07;;;7.07;;
43857;SDS011;29507;51.284;5.758;2023-06-10T06:49:38;9.95;;;7.07;;
43857;SDS011;29507;51.284;5.758;2023-06-10T06:52:04;9.70;;;6.63;;
43857;SDS011;29507;51.284;5.758;2023-06-10T06:54:30;12.32;;;6.57;;
43857;SDS011;29507;51.284;5.758;2023-06-10T06:56:56;10.45;;;6.68;;
43857;SDS011;29507;51.284;5.758;2023-06-10T06:59:22;9.68;;;6.65;;
43857;SDS011;29507;51.284;5.758;2023-06-10T07:01:47;10.02;;;6.55;;
43857;SDS011;29507;51.284;5.758;2023-06-10T07:04:14;10.68;;;7.35;;
43857;SDS011;29507;51.284;5.758;2023-06-10T07:06:40;10.07;;;6.57;;
43857;SDS011;29507;51.284;5.758;2023-06-10T07:09:09;8.93;;;6.65;;
43857;SDS011;29507;51.284;5.758;2023-06-10T07:11:35;9.35;;;6.50;;
43857;SDS011;29507;51.284;5.758;2023-06-10T07:14:00;10.32;;;6.75;;
43857;SDS011;29507;51.284;5.758;2023-06-10T07:16:26;8.82;;;6.55;;
43857;SDS011;29507;51.284;5.758;2023-06-10T07:18:52;9.85;;;6.72;;
43857;SDS011;29507;51.284;5.758;2023-06-10T07:21:18;8.93;;;5.63;;
43857;SDS011;29507;51.284;5.758;2023-06-10T07:23:44;12.00;;;5.70;;
43857;SDS011;29507;51.284;5.758;2023-06-10T07:26:10;10.15;;;5.82;;
43857;SDS011;29507;51.284;5.758;2023-06-10T07:28:38;9.13;;;6.45;;
43857;SDS011;29507;51.284;5.758;2023-06-10T07:31:04;7.93;;;5.40;;
43857;SDS011;29507;51.284;5.758;2023-06-10T07:33:32;7.80;;;5.20;;
43857;SDS011;29507;51.284;5.758;2023-06-10T07:35:57;9.43;;;5.75;;
43857;SDS011;29507;51.284;5.758;2023-06-10T07:38:24;8.20;;;5.47;;
43857;SDS011;29507;51.284;5.758;2023-06-10T07:40:50;10.27;;;6.65;;
43857;SDS011;29507;51.284;5.758;2023-06-10T07:43:16;7.95;;;5.50;;
43857;SDS011;29507;51.284;5.758;2023-06-10T07:45:42;9.52;;;6.05;;
43857;SDS011;29507;51.284;5.758;2023-06-10T07:48:08;7.07;;;5.93;;
43857;SDS011;29507;51.284;5.758;2023-06-10T07:50:34;9.15;;;5.72;;
43857;SDS011;29507;51.284;5.758;2023-06-10T07:52:59;8.70;;;5.40;;
43857;SDS011;29507;51.284;5.758;2023-06-10T07:55:25;9.18;;;5.32;;
43857;SDS011;29507;51.284;5.758;2023-06-10T07:57:51;8.85;;;5.20;;
43857;SDS011;29507;51.284;5.758;2023-06-10T08:00:17;7.30;;;5.10;;
43857;SDS011;29507;51.284;5.758;2023-06-10T08:02:44;7.65;;;4.55;;
43857;SDS011;29507;51.284;5.758;2023-06-10T08:05:09;8.52;;;5.50;;
43857;SDS011;29507;51.284;5.758;2023-06-10T08:07:35;7.25;;;5.47;;
43857;SDS011;29507;51.284;5.758;2023-06-10T08:10:00;8.00;;;4.88;;
43857;SDS011;29507;51.284;5.758;2023-06-10T08:12:27;9.57;;;5.40;;
43857;SDS011;29507;51.284;5.758;2023-06-10T08:14:53;8.80;;;5.72;;
43857;SDS011;29507;51.284;5.758;2023-06-10T08:17:19;9.02;;;4.82;;
43857;SDS011;29507;51.284;5.758;2023-06-10T08:19:45;8.48;;;5.57;;
43857;SDS011;29507;51.284;5.758;2023-06-10T08:22:11;6.97;;;5.15;;
43857;SDS011;29507;51.284;5.758;2023-06-10T08:24:37;10.20;;;4.88;;
43857;SDS011;29507;51.284;5.758;2023-06-10T08:27:02;7.50;;;4.25;;
43857;SDS011;29507;51.284;5.758;2023-06-10T08:29:28;7.32;;;4.75;;
43857;SDS011;29507;51.284;5.758;2023-06-10T08:31:56;8.98;;;5.03;;
43857;SDS011;29507;51.284;5.758;2023-06-10T08:34:22;6.88;;;4.55;;
43857;SDS011;29507;51.284;5.758;2023-06-10T08:36:47;7.43;;;4.57;;
43857;SDS011;29507;51.284;5.758;2023-06-10T08:39:18;7.05;;;4.60;;
43857;SDS011;29507;51.284;5.758;2023-06-10T08:41:46;6.68;;;5.05;;
43857;SDS011;29507;51.284;5.758;2023-06-10T08:44:35;14.98;;;6.45;;
43857;SDS011;29507;51.284;5.758;2023-06-10T08:47:05;6.57;;;4.70;;
43857;SDS011;29507;51.284;5.758;2023-06-10T08:49:38;7.18;;;4.35;;
43857;SDS011;29507;51.284;5.758;2023-06-10T08:52:07;7.22;;;4.93;;
43857;SDS011;29507;51.284;5.758;2023-06-10T08:54:42;7.57;;;4.97;;
43857;SDS011;29507;51.284;5.758;2023-06-10T08:57:12;8.95;;;4.68;;
43857;SDS011;29507;51.284;5.758;2023-06-10T08:59:38;6.38;;;4.57;;
43857;SDS011;29507;51.284;5.758;2023-06-10T09:02:05;7.40;;;5.05;;
43857;SDS011;29507;51.284;5.758;2023-06-10T09:04:33;7.93;;;5.63;;
43857;SDS011;29507;51.284;5.758;2023-06-10T09:07:01;9.47;;;5.37;;
43857;SDS011;29507;51.284;5.758;2023-06-10T09:09:28;9.27;;;5.40;;
43857;SDS011;29507;51.284;5.758;2023-06-10T09:11:57;7.80;;;4.95;;
43857;SDS011;29507;51.284;5.758;2023-06-10T09:14:23;6.90;;;4.57;;
43857;SDS011;29507;51.284;5.758;2023-06-10T09:16:49;9.23;;;4.57;;
43857;SDS011;29507;51.284;5.758;2023-06-10T09:19:17;13.18;;;5.35;;
43857;SDS011;29507;51.284;5.758;2023-06-10T09:21:46;7.95;;;4.90;;
43857;SDS011;29507;51.284;5.758;2023-06-10T09:24:11;8.90;;;4.75;;
43857;SDS011;29507;51.284;5.758;2023-06-10T09:26:37;10.00;;;4.30;;
43857;SDS011;29507;51.284;5.758;2023-06-10T09:29:03;7.85;;;4.95;;
43857;SDS011;29507;51.284;5.758;2023-06-10T09:31:30;8.65;;;5.15;;
43857;SDS011;29507;51.284;5.758;2023-06-10T09:34:12;10.70;;;4.50;;
43857;SDS011;29507;51.284;5.758;2023-06-10T09:36:40;7.68;;;4.60;;
43857;SDS011;29507;51.284;5.758;2023-06-10T09:39:16;10.88;;;5.05;;
43857;SDS011;29507;51.284;5.758;2023-06-10T09:41:43;7.65;;;4.95;;
43857;SDS011;29507;51.284;5.758;2023-06-10T09:44:13;5.25;;;4.05;;
43857;SDS011;29507;51.284;5.758;2023-06-10T09:46:40;9.60;;;4.63;;
43857;SDS011;29507;51.284;5.758;2023-06-10T09:49:06;8.40;;;4.93;;
43857;SDS011;29507;51.284;5.758;2023-06-10T09:51:32;7.68;;;4.20;;
43857;SDS011;29507;51.284;5.758;2023-06-10T09:53:57;8.43;;;4.82;;
43857;SDS011;29507;51.284;5.758;2023-06-10T09:56:34;9.70;;;4.95;;
43857;SDS011;29507;51.284;5.758;2023-06-10T09:59:00;6.25;;;4.28;;
43857;SDS011;29507;51.284;5.758;2023-06-10T10:01:26;9.70;;;4.40;;
43857;SDS011;29507;51.284;5.758;2023-06-10T10:03:52;6.50;;;4.30;;
43857;SDS011;29507;51.284;5.758;2023-06-10T10:06:18;8.98;;;4.43;;
43857;SDS011;29507;51.284;5.758;2023-06-10T10:08:45;11.05;;;4.70;;
43857;SDS011;29507;51.284;5.758;2023-06-10T10:11:12;6.35;;;3.95;;
43857;SDS011;29507;51.284;5.758;2023-06-10T10:13:41;7.25;;;4.40;;
43857;SDS011;29507;51.284;5.758;2023-06-10T10:16:11;6.18;;;4.00;;
43857;SDS011;29507;51.284;5.758;2023-06-10T10:18:41;9.52;;;4.30;;
43857;SDS011;29507;51.284;5.758;2023-06-10T10:21:11;8.65;;;4.78;;
43857;SDS011;29507;51.284;5.758;2023-06-10T10:24:01;9.20;;;4.35;;
43857;SDS011;29507;51.284;5.758;2023-06-10T10:26:34;9.88;;;4.25;;
43857;SDS011;29507;51.284;5.758;2023-06-10T10:29:16;9.80;;;4.30;;
43857;SDS011;29507;51.284;5.758;2023-06-10T10:31:44;6.50;;;4.32;;
43857;SDS011;29507;51.284;5.758;2023-06-10T10:34:13;8.80;;;4.72;;
43857;SDS011;29507;51.284;5.758;2023-06-10T10:36:42;8.02;;;4.28;;
43857;SDS011;29507;51.284;5.758;2023-06-10T10:39:08;12.82;;;5.35;;
43857;SDS011;29507;51.284;5.758;2023-06-10T10:41:34;7.43;;;4.28;;
43857;SDS011;29507;51.284;5.758;2023-06-10T10:44:02;8.35;;;5.13;;
43857;SDS011;29507;51.284;5.758;2023-06-10T10:46:41;9.70;;;4.78;;
43857;SDS011;29507;51.284;5.758;2023-06-10T10:49:13;8.30;;;4.75;;
43857;SDS011;29507;51.284;5.758;2023-06-10T10:51:59;5.43;;;3.83;;
43857;SDS011;29507;51.284;5.758;2023-06-10T10:54:30;11.55;;;4.00;;
43857;SDS011;29507;51.284;5.758;2023-06-10T11:00:10;8.15;;;3.90;;
43857;SDS011;29507;51.284;5.758;2023-06-10T11:02:34;6.22;;;3.78;;
43857;SDS011;29507;51.284;5.758;2023-06-10T11:05:02;7.45;;;4.43;;
43857;SDS011;29507;51.284;5.758;2023-06-10T11:07:30;6.40;;;4.15;;
43857;SDS011;29507;51.284;5.758;2023-06-10T11:12:26;6.78;;;3.90;;
43857;SDS011;29507;51.284;5.758;2023-06-10T11:15:25;5.85;;;4.20;;
43857;SDS011;29507;51.284;5.758;2023-06-10T11:26:09;6.22;;;4.10;;
43857;SDS011;29507;51.284;5.758;2023-06-10T11:31:22;7.60;;;3.90;;
43857;SDS011;29507;51.284;5.758;2023-06-10T11:33:52;10.52;;;4.32;;
43857;SDS011;29507;51.284;5.758;2023-06-10T11:36:18;9.15;;;4.30;;
43857;SDS011;29507;51.284;5.758;2023-06-10T11:38:44;6.97;;;3.95;;
43857;SDS011;29507;51.284;5.758;2023-06-10T11:41:17;5.30;;;4.03;;
43857;SDS011;29507;51.284;5.758;2023-06-10T11:43:43;6.50;;;4.25;;
43857;SDS011;29507;51.284;5.758;2023-06-10T11:46:10;8.75;;;4.25;;
43857;SDS011;29507;51.284;5.758;2023-06-10T11:48:36;7.85;;;3.70;;
43857;SDS011;29507;51.284;5.758;2023-06-10T11:51:08;6.68;;;3.83;;
43857;SDS011;29507;51.284;5.758;2023-06-10T11:53:34;6.72;;;4.35;;
43857;SDS011;29507;51.284;5.758;2023-06-10T11:56:00;6.20;;;3.92;;
43857;SDS011;29507;51.284;5.758;2023-06-10T11:58:25;8.85;;;3.70;;
43857;SDS011;29507;51.284;5.758;2023-06-10T12:00:55;4.57;;;3.80;;
43857;SDS011;29507;51.284;5.758;2023-06-10T12:03:24;8.02;;;3.95;;
43857;SDS011;29507;51.284;5.758;2023-06-10T12:06:00;6.43;;;3.85;;
43857;SDS011;29507;51.284;5.758;2023-06-10T12:08:26;6.80;;;3.50;;
43857;SDS011;29507;51.284;5.758;2023-06-10T12:10:53;5.10;;;3.92;;
43857;SDS011;29507;51.284;5.758;2023-06-10T12:13:19;6.57;;;3.78;;
43857;SDS011;29507;51.284;5.758;2023-06-10T12:15:45;6.35;;;4.22;;
43857;SDS011;29507;51.284;5.758;2023-06-10T12:18:17;5.28;;;3.60;;
43857;SDS011;29507;51.284;5.758;2023-06-10T12:20:46;7.35;;;3.63;;
43857;SDS011;29507;51.284;5.758;2023-06-10T12:23:13;5.85;;;3.53;;
43857;SDS011;29507;51.284;5.758;2023-06-10T12:25:39;8.93;;;4.13;;
43857;SDS011;29507;51.284;5.758;2023-06-10T12:28:14;6.03;;;3.83;;
43857;SDS011;29507;51.284;5.758;2023-06-10T12:30:40;6.13;;;3.95;;
43857;SDS011;29507;51.284;5.758;2023-06-10T12:33:15;6.03;;;3.95;;
43857;SDS011;29507;51.284;5.758;2023-06-10T12:35:46;5.63;;;3.60;;
43857;SDS011;29507;51.284;5.758;2023-06-10T12:38:13;10.23;;;4.18;;
43857;SDS011;29507;51.284;5.758;2023-06-10T12:40:39;5.13;;;3.95;;
43857;SDS011;29507;51.284;5.758;2023-06-10T12:43:05;6.68;;;3.53;;
43857;SDS011;29507;51.284;5.758;2023-06-10T12:45:32;8.48;;;4.28;;
43857;SDS011;29507;51.284;5.758;2023-06-10T12:50:35;7.28;;;4.30;;
43857;SDS011;29507;51.284;5.758;2023-06-10T12:53:02;7.22;;;4.47;;
43857;SDS011;29507;51.284;5.758;2023-06-10T12:55:28;5.93;;;3.80;;
43857;SDS011;29507;51.284;5.758;2023-06-10T12:57:54;5.97;;;3.85;;
43857;SDS011;29507;51.284;5.758;2023-06-10T13:00:20;6.68;;;3.90;;
43857;SDS011;29507;51.284;5.758;2023-06-10T13:02:46;7.47;;;3.78;;
43857;SDS011;29507;51.284;5.758;2023-06-10T13:05:13;6.00;;;3.88;;
43857;SDS011;29507;51.284;5.758;2023-06-10T13:07:39;5.00;;;3.70;;
43857;SDS011;29507;51.284;5.758;2023-06-10T13:10:04;6.07;;;4.03;;
43857;SDS011;29507;51.284;5.758;2023-06-10T13:12:30;5.07;;;3.85;;
43857;SDS011;29507;51.284;5.758;2023-06-10T13:14:56;11.65;;;3.78;;
43857;SDS011;29507;51.284;5.758;2023-06-10T13:17:22;8.95;;;4.45;;
43857;SDS011;29507;51.284;5.758;2023-06-10T13:19:47;5.97;;;4.28;;
43857;SDS011;29507;51.284;5.758;2023-06-10T13:22:14;5.47;;;3.25;;
43857;SDS011;29507;51.284;5.758;2023-06-10T13:24:39;6.07;;;3.92;;
43857;SDS011;29507;51.284;5.758;2023-06-10T13:27:05;11.00;;;4.30;;
43857;SDS011;29507;51.284;5.758;2023-06-10T13:29:32;7.45;;;3.85;;
43857;SDS011;29507;51.284;5.758;2023-06-10T13:31:57;6.78;;;4.10;;
43857;SDS011;29507;51.284;5.758;2023-06-10T13:34:23;8.10;;;3.88;;
43857;SDS011;29507;51.284;5.758;2023-06-10T13:36:48;8.18;;;4.28;;
43857;SDS011;29507;51.284;5.758;2023-06-10T13:39:14;7.63;;;4.15;;
43857;SDS011;29507;51.284;5.758;2023-06-10T13:41:40;5.88;;;3.70;;
43857;SDS011;29507;51.284;5.758;2023-06-10T13:44:06;6.97;;;3.78;;
43857;SDS011;29507;51.284;5.758;2023-06-10T13:46:32;5.80;;;3.88;;
43857;SDS011;29507;51.284;5.758;2023-06-10T13:48:58;6.97;;;4.05;;
43857;SDS011;29507;51.284;5.758;2023-06-10T13:51:23;7.10;;;4.07;;
43857;SDS011;29507;51.284;5.758;2023-06-10T13:53:49;5.38;;;3.83;;
43857;SDS011;29507;51.284;5.758;2023-06-10T13:56:17;6.55;;;4.18;;
43857;SDS011;29507;51.284;5.758;2023-06-10T13:58:43;10.63;;;4.43;;
43857;SDS011;29507;51.284;5.758;2023-06-10T14:01:08;13.05;;;4.70;;
43857;SDS011;29507;51.284;5.758;2023-06-10T14:03:34;5.97;;;4.20;;
43857;SDS011;29507;51.284;5.758;2023-06-10T14:05:59;7.20;;;4.03;;
43857;SDS011;29507;51.284;5.758;2023-06-10T14:08:25;5.93;;;3.78;;
43857;SDS011;29507;51.284;5.758;2023-06-10T14:10:51;5.35;;;3.80;;
43857;SDS011;29507;51.284;5.758;2023-06-10T14:13:17;7.53;;;3.78;;
43857;SDS011;29507;51.284;5.758;2023-06-10T14:15:43;6.03;;;4.05;;
43857;SDS011;29507;51.284;5.758;2023-06-10T14:18:08;11.75;;;4.38;;
43857;SDS011;29507;51.284;5.758;2023-06-10T14:20:34;5.10;;;4.00;;
43857;SDS011;29507;51.284;5.758;2023-06-10T14:23:00;6.13;;;4.10;;
43857;SDS011;29507;51.284;5.758;2023-06-10T14:25:25;5.28;;;3.80;;
43857;SDS011;29507;51.284;5.758;2023-06-10T14:27:51;7.32;;;4.40;;
43857;SDS011;29507;51.284;5.758;2023-06-10T14:30:17;7.05;;;4.35;;
43857;SDS011;29507;51.284;5.758;2023-06-10T14:32:42;5.60;;;3.30;;
43857;SDS011;29507;51.284;5.758;2023-06-10T14:35:08;7.00;;;3.80;;
43857;SDS011;29507;51.284;5.758;2023-06-10T14:37:34;7.05;;;3.92;;
43857;SDS011;29507;51.284;5.758;2023-06-10T14:40:00;6.03;;;4.25;;
43857;SDS011;29507;51.284;5.758;2023-06-10T14:42:26;7.70;;;4.07;;
43857;SDS011;29507;51.284;5.758;2023-06-10T14:44:51;7.07;;;4.25;;
43857;SDS011;29507;51.284;5.758;2023-06-10T14:47:17;8.30;;;4.18;;
43857;SDS011;29507;51.284;5.758;2023-06-10T14:49:43;6.18;;;3.95;;
43857;SDS011;29507;51.284;5.758;2023-06-10T14:52:09;5.88;;;4.25;;
43857;SDS011;29507;51.284;5.758;2023-06-10T14:54:34;9.30;;;4.30;;
43857;SDS011;29507;51.284;5.758;2023-06-10T14:57:00;11.45;;;3.97;;
43857;SDS011;29507;51.284;5.758;2023-06-10T14:59:26;9.60;;;4.28;;
43857;SDS011;29507;51.284;5.758;2023-06-10T15:01:51;7.38;;;3.80;;
43857;SDS011;29507;51.284;5.758;2023-06-10T15:04:17;7.55;;;4.53;;
43857;SDS011;29507;51.284;5.758;2023-06-10T15:06:43;15.77;;;4.75;;
43857;SDS011;29507;51.284;5.758;2023-06-10T15:09:09;6.63;;;4.35;;
43857;SDS011;29507;51.284;5.758;2023-06-10T15:11:34;6.25;;;4.10;;
43857;SDS011;29507;51.284;5.758;2023-06-10T15:14:01;6.38;;;4.00;;
43857;SDS011;29507;51.284;5.758;2023-06-10T15:16:26;5.15;;;4.07;;
43857;SDS011;29507;51.284;5.758;2023-06-10T15:18:52;6.25;;;4.30;;